Queen Of Cowichan — CZ4990 — position and weather

sailwx.info

Track history (hours):
 
Tides and Currents Weather Stations Pressure Air Temp Water Temp Dewpoint Dewpoint Depression Visibility Wind Speed Wind Dir Waves Ship Positions

Queen Of Cowichan

Last reported at 2014-Jul-31 04:09 UTC. Time now 2014-Jul-31 05:33 UTC.
Position N 49°12' W 123°57'.

Length 139 m; draft 5.5 m.

Type: Passenger vessel. MMSI: 316001251.

Date/timePositionNaut miles runAvg speedWind from/ knotsBaromVisibWave heightAir tempDewpointWater temp
2014-Jul-31 04:09N 49°12' W 123°57'0 0.0
2014-Jul-31 03:21N 49°12' W 123°57'0 0.0
2014-Jul-31 02:33N 49°12' W 123°57'0 0.0
2014-Jul-30 23:25N 49°12' W 123°57'1416.0
2014-Jul-30 22:33N 49°17' W 123°38'1514.6
2014-Jul-30 21:31N 49°23' W 123°16'5 5.0
2014-Jul-30 20:33N 49°19' W 123°22'2019.8
2014-Jul-30 19:33N 49°14' W 123°51'5 0.8
2014-Jul-30 13:14N 49°12' W 123°57'0 0.0
2014-Jul-30 12:14N 49°12' W 123°57'0 0.0
2014-Jul-30 10:08N 49°12' W 123°57'0 0.0
2014-Jul-30 09:32N 49°12' W 123°57'0 0.0
2014-Jul-30 07:32N 49°12' W 123°57'0 0.0
2014-Jul-30 06:32N 49°12' W 123°57'0 0.0
2014-Jul-30 05:32N 49°12' W 123°57'0 0.0
2014-Jul-30 04:32N 49°12' W 123°57'0 0.0
2014-Jul-30 03:32N 49°12' W 123°57'0 0.0
2014-Jul-30 02:32N 49°12' W 123°57'0 0.0
2014-Jul-29 23:17N 49°12' W 123°57'1216.9
2014-Jul-29 22:33N 49°17' W 123°40'1716.7
2014-Jul-29 21:33N 49°23' W 123°16'5 5.2
2014-Jul-29 20:33N 49°19' W 123°22'2019.7
2014-Jul-29 19:33N 49°14' W 123°51'4 2.2
2014-Jul-29 17:31N 49°12' W 123°57'0 0.0
2014-Jul-29 16:07N 49°12' W 123°57'0 0.0
2014-Jul-29 15:22N 49°12' W 123°57'0 0.0
2014-Jul-29 14:13N 49°12' W 123°57'0 0.0
2014-Jul-29 13:19N 49°12' W 123°57'0 0.0
2014-Jul-29 12:31N 49°12' W 123°57'0 0.0
2014-Jul-29 09:13N 49°12' W 123°57'0 0.0
2014-Jul-29 08:31N 49°12' W 123°57'0 0.0
2014-Jul-29 07:25N 49°12' W 123°57'0 0.0
2014-Jul-29 06:31N 49°12' W 123°57'0 0.0
2014-Jul-29 05:31N 49°12' W 123°57'5 2.4
2014-Jul-29 03:33N 49°14' W 123°51'2020.2
2014-Jul-29 02:33N 49°20' W 123°21'5 4.7
2014-Jul-29 01:34N 49°23' W 123°16'1918.6
2014-Jul-29 00:33N 49°15' W 123°42'10 9.4
2014-Jul-28 23:27N 49°12' W 123°57'1213.2
2014-Jul-28 22:34N 49°16' W 123°41'1716.9
2014-Jul-28 21:33N 49°23' W 123°16'6 5.9
2014-Jul-28 20:34N 49°19' W 123°23'2019.7
2014-Jul-28 19:34N 49°14' W 123°52'1 1.4
2014-Jul-28 18:33N 49°13' W 123°54'2019.8
2014-Jul-28 17:33N 49°19' W 123°25'7 6.9
2014-Jul-28 16:33N 49°23' W 123°16'1514.6
2014-Jul-28 15:33N 49°15' W 123°36'1514.5
2014-Jul-28 14:33N 49°12' W 123°57'0 0.0
2014-Jul-28 13:31N 49°12' W 123°57'0 0.0
2014-Jul-28 12:31N 49°12' W 123°57'0 0.0
2014-Jul-28 11:31N 49°12' W 123°57'0 0.0
2014-Jul-28 10:31N 49°12' W 123°57'0 0.0
2014-Jul-28 09:31N 49°12' W 123°57'0 0.0
2014-Jul-28 08:22N 49°12' W 123°57'810.1
2014-Jul-28 07:34N 49°15' W 123°46'1919.4
2014-Jul-28 06:33N 49°22' W 123°18'6 5.8
2014-Jul-28 05:33N 49°18' W 123°24'2019.8
2014-Jul-28 04:33N 49°13' W 123°54'0 0.2
2014-Jul-28 03:34N 49°13' W 123°54'2019.9
2014-Jul-28 02:34N 49°19' W 123°25'7 6.7
2014-Jul-28 01:33N 49°23' W 123°16'1818.1
2014-Jul-28 00:33N 49°15' W 123°41'1110.9
2014-Jul-27 23:33N 49°12' W 123°57'1413.8
2014-Jul-27 22:33N 49°17' W 123°38'1515.2
2014-Jul-27 21:33N 49°23' W 123°16'5 4.8
2014-Jul-27 20:34N 49°19' W 123°21'2019.8
2014-Jul-27 19:33N 49°14' W 123°51'5 4.8
2014-Jul-27 18:33N 49°12' W 123°57'0 0.0
2014-Jul-27 17:28N 49°12' W 123°57'0 0.0
2014-Jul-27 16:10N 49°12' W 123°57'0 0.0
2014-Jul-27 15:28N 49°12' W 123°57'0 0.0
2014-Jul-27 14:28N 49°12' W 123°57'0 0.0
2014-Jul-27 13:28N 49°12' W 123°57'0 0.0
2014-Jul-27 12:28N 49°12' W 123°57'0 0.0
2014-Jul-27 11:28N 49°12' W 123°57'0 0.0
2014-Jul-27 10:16N 49°12' W 123°57'0 0.0
2014-Jul-27 09:28N 49°12' W 123°57'0 0.0
2014-Jul-27 08:31N 49°12' W 123°57'0 0.0
2014-Jul-27 07:28N 49°12' W 123°57'0 0.0
2014-Jul-27 06:28N 49°12' W 123°57'0 0.0
2014-Jul-27 05:28N 49°12' W 123°57'0 0.0
2014-Jul-27 04:28N 49°12' W 123°57'0 0.0
2014-Jul-27 03:28N 49°12' W 123°57'0 0.0
2014-Jul-27 00:22N 49°12' W 123°57'0 0.0
2014-Jul-26 23:28N 49°12' W 123°57'1212.8
2014-Jul-26 22:34N 49°16' W 123°41'1717.3
2014-Jul-26 21:33N 49°23' W 123°16'6 6.1
2014-Jul-26 20:34N 49°19' W 123°23'2019.7
2014-Jul-26 19:33N 49°14' W 123°53'1 1.4
2014-Jul-26 18:33N 49°13' W 123°55'2019.7
2014-Jul-26 17:33N 49°19' W 123°26'7 7.2
2014-Jul-26 16:33N 49°23' W 123°16'1413.8
2014-Jul-26 15:34N 49°16' W 123°35'1515.2
2014-Jul-26 14:33N 49°12' W 123°57'0 0.0
2014-Jul-26 13:33N 49°12' W 123°57'0 0.0
2014-Jul-26 12:28N 49°12' W 123°57'0 0.0
2014-Jul-26 11:28N 49°12' W 123°57'0 0.0
2014-Jul-26 10:28N 49°12' W 123°57'0 0.0
2014-Jul-26 09:28N 49°12' W 123°57'0 0.0
2014-Jul-26 08:28N 49°12' W 123°57'0 0.0
2014-Jul-26 07:28N 49°12' W 123°57'0 0.0
2014-Jul-26 06:28N 49°12' W 123°57'0 0.0
2014-Jul-26 05:31N 49°12' W 123°57'0 0.0
2014-Jul-26 04:28N 49°12' W 123°57'4 4.3
2014-Jul-26 03:33N 49°14' W 123°52'2019.9
2014-Jul-26 02:33N 49°19' W 123°23'6 5.6
2014-Jul-26 01:33N 49°23' W 123°16'1817.6
2014-Jul-26 00:33N 49°15' W 123°41'1111.3
2014-Jul-25 23:33N 49°12' W 123°57'1212.4
2014-Jul-25 22:34N 49°17' W 123°40'1716.6
2014-Jul-25 21:33N 49°23' W 123°16'5 5.3
2014-Jul-25 20:34N 49°19' W 123°23'2120.5
2014-Jul-25 19:33N 49°14' W 123°53'2 1.6
2014-Jul-25 18:33N 49°13' W 123°55'2019.9
2014-Jul-25 17:34N 49°19' W 123°26'7 7.2
2014-Jul-25 16:33N 49°23' W 123°16'1413.9
2014-Jul-25 15:34N 49°17' W 123°35'1515.1
2014-Jul-25 14:34N 49°12' W 123°57'0 0.0
2014-Jul-25 13:22N 49°12' W 123°57'0 0.0
2014-Jul-25 12:28N 49°12' W 123°57'0 0.0
2014-Jul-25 11:28N 49°12' W 123°57'0 0.0
2014-Jul-25 10:28N 49°12' W 123°57'0 0.0
2014-Jul-25 09:28N 49°12' W 123°57'0 0.0
2014-Jul-25 08:28N 49°12' W 123°57'0 0.0
2014-Jul-25 07:28N 49°12' W 123°57'0 0.0
2014-Jul-25 06:28N 49°12' W 123°57'0 0.0
2014-Jul-25 05:31N 49°12' W 123°57'0 0.0
2014-Jul-25 04:28N 49°12' W 123°57'1 0.6
2014-Jul-25 03:34N 49°12' W 123°57'1919.3
2014-Jul-25 02:34N 49°18' W 123°29'9 9.3
2014-Jul-25 01:33N 49°23' W 123°16'1414.3
2014-Jul-25 00:33N 49°17' W 123°37'1514.7
2014-Jul-24 23:34N 49°12' W 123°57'1212.3
2014-Jul-24 22:33N 49°17' W 123°40'1716.6
2014-Jul-24 21:33N 49°23' W 123°16'5 4.6
2014-Jul-24 20:33N 49°19' W 123°21'1919.4
2014-Jul-24 19:33N 49°14' W 123°50'4 4.2
2014-Jul-24 18:34N 49°13' W 123°56'2019.6
2014-Jul-24 17:34N 49°18' W 123°27'8 8.2
2014-Jul-24 16:33N 49°23' W 123°16'1414.2
2014-Jul-24 15:33N 49°16' W 123°35'1514.9
2014-Jul-24 14:33N 49°12' W 123°57'0 0.0
2014-Jul-24 13:20N 49°12' W 123°57'0 0.0
2014-Jul-24 12:29N 49°12' W 123°57'0 0.0
2014-Jul-24 11:32N 49°12' W 123°57'0 0.0
2014-Jul-24 10:32N 49°12' W 123°57'0 0.0
2014-Jul-24 09:32N 49°12' W 123°57'0 0.0
2014-Jul-24 08:26N 49°12' W 123°57'0 0.0
2014-Jul-24 07:29N 49°12' W 123°57'0 0.0
2014-Jul-24 06:29N 49°12' W 123°57'0 0.0
2014-Jul-24 05:20N 49°12' W 123°57'0 0.0
2014-Jul-24 04:29N 49°12' W 123°57'0 0.0
2014-Jul-24 03:29N 49°12' W 123°57'0 0.0
2014-Jul-24 02:26N 49°12' W 123°57'0 0.0
2014-Jul-24 01:32N 49°12' W 123°57'0 0.0
2014-Jul-23 23:16N 49°12' W 123°57'1217.0
2014-Jul-23 22:33N 49°17' W 123°41'1716.9
2014-Jul-23 21:33N 49°23' W 123°16'6 6.2
2014-Jul-23 20:33N 49°19' W 123°23'2019.9
2014-Jul-23 19:33N 49°13' W 123°53'3 1.6
2014-Jul-23 17:27N 49°12' W 123°57'0 0.0
2014-Jul-23 16:27N 49°12' W 123°57'0 0.0
2014-Jul-23 15:33N 49°12' W 123°57'0 0.0
2014-Jul-23 14:33N 49°12' W 123°57'0 0.0
2014-Jul-23 13:33N 49°12' W 123°57'0 0.0
2014-Jul-23 12:33N 49°12' W 123°57'0 0.0
2014-Jul-23 11:27N 49°12' W 123°57'0 0.0
2014-Jul-23 10:33N 49°12' W 123°57'0 0.0
2014-Jul-23 09:33N 49°12' W 123°57'0 0.0
2014-Jul-23 08:27N 49°12' W 123°57'0 0.0
2014-Jul-23 07:33N 49°12' W 123°57'0 0.0
2014-Jul-23 06:33N 49°12' W 123°57'0 0.0
2014-Jul-23 05:27N 49°12' W 123°57'0 0.0
2014-Jul-23 04:33N 49°12' W 123°57'0 0.0
2014-Jul-23 03:33N 49°12' W 123°57'0 0.0
2014-Jul-23 02:33N 49°12' W 123°57'0 0.0
2014-Jul-23 01:33N 49°12' W 123°57'0 0.0
2014-Jul-23 00:33N 49°12' W 123°57'0 0.0
2014-Jul-22 23:27N 49°12' W 123°57'1112.4
2014-Jul-22 22:33N 49°16' W 123°42'1817.8
2014-Jul-22 21:33N 49°23' W 123°16'5 4.8
2014-Jul-22 20:33N 49°19' W 123°22'2020.2
2014-Jul-22 19:33N 49°14' W 123°51'4 4.2
2014-Jul-22 18:30N 49°12' W 123°57'0 0.0
2014-Jul-22 17:30N 49°12' W 123°57'0 0.0
2014-Jul-22 16:18N 49°12' W 123°57'0 0.0
2014-Jul-22 15:24N 49°12' W 123°57'0 0.0
2014-Jul-22 14:33N 49°12' W 123°57'0 0.0
2014-Jul-22 13:18N 49°12' W 123°57'0 0.0
2014-Jul-22 12:30N 49°12' W 123°57'0 0.0
2014-Jul-22 11:33N 49°12' W 123°57'0 0.0
2014-Jul-22 10:15N 49°12' W 123°57'0 0.0
2014-Jul-22 09:24N 49°12' W 123°57'0 0.0
2014-Jul-22 08:18N 49°12' W 123°57'0 0.0
2014-Jul-22 07:30N 49°12' W 123°57'0 0.0
2014-Jul-22 06:30N 49°12' W 123°57'0 0.0
2014-Jul-22 05:30N 49°12' W 123°57'0 0.0
2014-Jul-22 04:33N 49°12' W 123°57'2 2.1
2014-Jul-22 03:34N 49°13' W 123°55'2019.9
2014-Jul-22 02:33N 49°19' W 123°26'7 7.1
2014-Jul-22 01:33N 49°23' W 123°16'1716.5
2014-Jul-22 00:33N 49°16' W 123°39'1212.4
2014-Jul-21 23:33N 49°12' W 123°57'1212.2
2014-Jul-21 22:33N 49°17' W 123°40'1716.8
2014-Jul-21 21:33N 49°23' W 123°16'5 5.3
2014-Jul-21 20:33N 49°19' W 123°22'520.0
2014-Jul-21 20:18N 49°17' W 123°29'1520.1
2014-Jul-21 19:33N 49°14' W 123°52'3 2.9
2014-Jul-21 18:34N 49°13' W 123°56'2020.1
2014-Jul-21 17:34N 49°19' W 123°26'8 7.7
2014-Jul-21 16:33N 49°23' W 123°16'1514.7
2014-Jul-21 15:34N 49°16' W 123°36'1414.3
2014-Jul-21 14:33N 49°12' W 123°57'0 0.0
2014-Jul-21 13:32N 49°12' W 123°57'0 0.0
2014-Jul-21 12:29N 49°12' W 123°57'0 0.0
2014-Jul-21 11:29N 49°12' W 123°57'0 0.0
2014-Jul-21 10:29N 49°12' W 123°57'0 0.0
2014-Jul-21 08:29N 49°12' W 123°57'5 5.9
2014-Jul-21 07:33N 49°14' W 123°50'2020.1
2014-Jul-21 06:33N 49°20' W 123°21'1 1.0
2014-Jul-21 05:33N 49°20' W 123°22'2019.7
2014-Jul-21 04:33N 49°14' W 123°51'  
Track history (hours):
 
Tides and Currents Weather Stations Pressure Air Temp Water Temp Dewpoint Dewpoint Depression Visibility Wind Speed Wind Dir Waves Ship Positions

Queen Of Cowichan

Last reported at 2014-Jul-31 04:09 UTC. Time now 2014-Jul-31 05:33 UTC.
Position N 49°12' W 123°57'.

Length 139 m; draft 5.5 m.

Type: Passenger vessel. MMSI: 316001251.

Date/timePositionNaut miles runAvg speedWind from/ knotsBaromVisibWave heightAir tempDewpointWater temp
2014-Jul-31 04:09N 49°12' W 123°57'0 0.0
2014-Jul-31 03:21N 49°12' W 123°57'0 0.0
2014-Jul-31 02:33N 49°12' W 123°57'0 0.0
2014-Jul-30 23:25N 49°12' W 123°57'1416.0
2014-Jul-30 22:33N 49°17' W 123°38'1514.6
2014-Jul-30 21:31N 49°23' W 123°16'5 5.0
2014-Jul-30 20:33N 49°19' W 123°22'2019.8
2014-Jul-30 19:33N 49°14' W 123°51'5 0.8
2014-Jul-30 13:14N 49°12' W 123°57'0 0.0
2014-Jul-30 12:14N 49°12' W 123°57'0 0.0
2014-Jul-30 10:08N 49°12' W 123°57'0 0.0
2014-Jul-30 09:32N 49°12' W 123°57'0 0.0
2014-Jul-30 07:32N 49°12' W 123°57'0 0.0
2014-Jul-30 06:32N 49°12' W 123°57'0 0.0
2014-Jul-30 05:32N 49°12' W 123°57'0 0.0
2014-Jul-30 04:32N 49°12' W 123°57'0 0.0
2014-Jul-30 03:32N 49°12' W 123°57'0 0.0
2014-Jul-30 02:32N 49°12' W 123°57'0 0.0
2014-Jul-29 23:17N 49°12' W 123°57'1216.9
2014-Jul-29 22:33N 49°17' W 123°40'1716.7
2014-Jul-29 21:33N 49°23' W 123°16'5 5.2
2014-Jul-29 20:33N 49°19' W 123°22'2019.7
2014-Jul-29 19:33N 49°14' W 123°51'4 2.2
2014-Jul-29 17:31N 49°12' W 123°57'0 0.0
2014-Jul-29 16:07N 49°12' W 123°57'0 0.0
2014-Jul-29 15:22N 49°12' W 123°57'0 0.0
2014-Jul-29 14:13N 49°12' W 123°57'0 0.0
2014-Jul-29 13:19N 49°12' W 123°57'0 0.0
2014-Jul-29 12:31N 49°12' W 123°57'0 0.0
2014-Jul-29 09:13N 49°12' W 123°57'0 0.0
2014-Jul-29 08:31N 49°12' W 123°57'0 0.0
2014-Jul-29 07:25N 49°12' W 123°57'0 0.0
2014-Jul-29 06:31N 49°12' W 123°57'0 0.0
2014-Jul-29 05:31N 49°12' W 123°57'5 2.4
2014-Jul-29 03:33N 49°14' W 123°51'2020.2
2014-Jul-29 02:33N 49°20' W 123°21'5 4.7
2014-Jul-29 01:34N 49°23' W 123°16'1918.6
2014-Jul-29 00:33N 49°15' W 123°42'10 9.4
2014-Jul-28 23:27N 49°12' W 123°57'1213.2
2014-Jul-28 22:34N 49°16' W 123°41'1716.9
2014-Jul-28 21:33N 49°23' W 123°16'6 5.9
2014-Jul-28 20:34N 49°19' W 123°23'2019.7
2014-Jul-28 19:34N 49°14' W 123°52'1 1.4
2014-Jul-28 18:33N 49°13' W 123°54'2019.8
2014-Jul-28 17:33N 49°19' W 123°25'7 6.9
2014-Jul-28 16:33N 49°23' W 123°16'1514.6
2014-Jul-28 15:33N 49°15' W 123°36'1514.5
2014-Jul-28 14:33N 49°12' W 123°57'0 0.0
2014-Jul-28 13:31N 49°12' W 123°57'0 0.0
2014-Jul-28 12:31N 49°12' W 123°57'0 0.0
2014-Jul-28 11:31N 49°12' W 123°57'0 0.0
2014-Jul-28 10:31N 49°12' W 123°57'0 0.0
2014-Jul-28 09:31N 49°12' W 123°57'0 0.0
2014-Jul-28 08:22N 49°12' W 123°57'810.1
2014-Jul-28 07:34N 49°15' W 123°46'1919.4
2014-Jul-28 06:33N 49°22' W 123°18'6 5.8
2014-Jul-28 05:33N 49°18' W 123°24'2019.8
2014-Jul-28 04:33N 49°13' W 123°54'0 0.2
2014-Jul-28 03:34N 49°13' W 123°54'2019.9
2014-Jul-28 02:34N 49°19' W 123°25'7 6.7
2014-Jul-28 01:33N 49°23' W 123°16'1818.1
2014-Jul-28 00:33N 49°15' W 123°41'1110.9
2014-Jul-27 23:33N 49°12' W 123°57'1413.8
2014-Jul-27 22:33N 49°17' W 123°38'1515.2
2014-Jul-27 21:33N 49°23' W 123°16'5 4.8
2014-Jul-27 20:34N 49°19' W 123°21'2019.8
2014-Jul-27 19:33N 49°14' W 123°51'5 4.8
2014-Jul-27 18:33N 49°12' W 123°57'0 0.0
2014-Jul-27 17:28N 49°12' W 123°57'0 0.0
2014-Jul-27 16:10N 49°12' W 123°57'0 0.0
2014-Jul-27 15:28N 49°12' W 123°57'0 0.0
2014-Jul-27 14:28N 49°12' W 123°57'0 0.0
2014-Jul-27 13:28N 49°12' W 123°57'0 0.0
2014-Jul-27 12:28N 49°12' W 123°57'0 0.0
2014-Jul-27 11:28N 49°12' W 123°57'0 0.0
2014-Jul-27 10:16N 49°12' W 123°57'0 0.0
2014-Jul-27 09:28N 49°12' W 123°57'0 0.0
2014-Jul-27 08:31N 49°12' W 123°57'0 0.0
2014-Jul-27 07:28N 49°12' W 123°57'0 0.0
2014-Jul-27 06:28N 49°12' W 123°57'0 0.0
2014-Jul-27 05:28N 49°12' W 123°57'0 0.0
2014-Jul-27 04:28N 49°12' W 123°57'0 0.0
2014-Jul-27 03:28N 49°12' W 123°57'0 0.0
2014-Jul-27 00:22N 49°12' W 123°57'0 0.0
2014-Jul-26 23:28N 49°12' W 123°57'1212.8
2014-Jul-26 22:34N 49°16' W 123°41'1717.3
2014-Jul-26 21:33N 49°23' W 123°16'6 6.1
2014-Jul-26 20:34N 49°19' W 123°23'2019.7
2014-Jul-26 19:33N 49°14' W 123°53'1 1.4
2014-Jul-26 18:33N 49°13' W 123°55'2019.7
2014-Jul-26 17:33N 49°19' W 123°26'7 7.2
2014-Jul-26 16:33N 49°23' W 123°16'1413.8
2014-Jul-26 15:34N 49°16' W 123°35'1515.2
2014-Jul-26 14:33N 49°12' W 123°57'0 0.0
2014-Jul-26 13:33N 49°12' W 123°57'0 0.0
2014-Jul-26 12:28N 49°12' W 123°57'0 0.0
2014-Jul-26 11:28N 49°12' W 123°57'0 0.0
2014-Jul-26 10:28N 49°12' W 123°57'0 0.0
2014-Jul-26 09:28N 49°12' W 123°57'0 0.0
2014-Jul-26 08:28N 49°12' W 123°57'0 0.0
2014-Jul-26 07:28N 49°12' W 123°57'0 0.0
2014-Jul-26 06:28N 49°12' W 123°57'0 0.0
2014-Jul-26 05:31N 49°12' W 123°57'0 0.0
2014-Jul-26 04:28N 49°12' W 123°57'4 4.3
2014-Jul-26 03:33N 49°14' W 123°52'2019.9
2014-Jul-26 02:33N 49°19' W 123°23'6 5.6
2014-Jul-26 01:33N 49°23' W 123°16'1817.6
2014-Jul-26 00:33N 49°15' W 123°41'1111.3
2014-Jul-25 23:33N 49°12' W 123°57'1212.4
2014-Jul-25 22:34N 49°17' W 123°40'1716.6
2014-Jul-25 21:33N 49°23' W 123°16'5 5.3
2014-Jul-25 20:34N 49°19' W 123°23'2120.5
2014-Jul-25 19:33N 49°14' W 123°53'2 1.6
2014-Jul-25 18:33N 49°13' W 123°55'2019.9
2014-Jul-25 17:34N 49°19' W 123°26'7 7.2
2014-Jul-25 16:33N 49°23' W 123°16'1413.9
2014-Jul-25 15:34N 49°17' W 123°35'1515.1
2014-Jul-25 14:34N 49°12' W 123°57'0 0.0
2014-Jul-25 13:22N 49°12' W 123°57'0 0.0
2014-Jul-25 12:28N 49°12' W 123°57'0 0.0
2014-Jul-25 11:28N 49°12' W 123°57'0 0.0
2014-Jul-25 10:28N 49°12' W 123°57'0 0.0
2014-Jul-25 09:28N 49°12' W 123°57'0 0.0
2014-Jul-25 08:28N 49°12' W 123°57'0 0.0
2014-Jul-25 07:28N 49°12' W 123°57'0 0.0
2014-Jul-25 06:28N 49°12' W 123°57'0 0.0
2014-Jul-25 05:31N 49°12' W 123°57'0 0.0
2014-Jul-25 04:28N 49°12' W 123°57'1 0.6
2014-Jul-25 03:34N 49°12' W 123°57'1919.3
2014-Jul-25 02:34N 49°18' W 123°29'9 9.3
2014-Jul-25 01:33N 49°23' W 123°16'1414.3
2014-Jul-25 00:33N 49°17' W 123°37'1514.7
2014-Jul-24 23:34N 49°12' W 123°57'1212.3
2014-Jul-24 22:33N 49°17' W 123°40'1716.6
2014-Jul-24 21:33N 49°23' W 123°16'5 4.6
2014-Jul-24 20:33N 49°19' W 123°21'1919.4
2014-Jul-24 19:33N 49°14' W 123°50'4 4.2
2014-Jul-24 18:34N 49°13' W 123°56'2019.6
2014-Jul-24 17:34N 49°18' W 123°27'8 8.2
2014-Jul-24 16:33N 49°23' W 123°16'1414.2
2014-Jul-24 15:33N 49°16' W 123°35'1514.9
2014-Jul-24 14:33N 49°12' W 123°57'0 0.0
2014-Jul-24 13:20N 49°12' W 123°57'0 0.0
2014-Jul-24 12:29N 49°12' W 123°57'0 0.0
2014-Jul-24 11:32N 49°12' W 123°57'0 0.0
2014-Jul-24 10:32N 49°12' W 123°57'0 0.0
2014-Jul-24 09:32N 49°12' W 123°57'0 0.0
2014-Jul-24 08:26N 49°12' W 123°57'0 0.0
2014-Jul-24 07:29N 49°12' W 123°57'0 0.0
2014-Jul-24 06:29N 49°12' W 123°57'0 0.0
2014-Jul-24 05:20N 49°12' W 123°57'0 0.0
2014-Jul-24 04:29N 49°12' W 123°57'0 0.0
2014-Jul-24 03:29N 49°12' W 123°57'0 0.0
2014-Jul-24 02:26N 49°12' W 123°57'0 0.0
2014-Jul-24 01:32N 49°12' W 123°57'0 0.0
2014-Jul-23 23:16N 49°12' W 123°57'1217.0
2014-Jul-23 22:33N 49°17' W 123°41'1716.9
2014-Jul-23 21:33N 49°23' W 123°16'6 6.2
2014-Jul-23 20:33N 49°19' W 123°23'2019.9
2014-Jul-23 19:33N 49°13' W 123°53'3 1.6
2014-Jul-23 17:27N 49°12' W 123°57'0 0.0
2014-Jul-23 16:27N 49°12' W 123°57'0 0.0
2014-Jul-23 15:33N 49°12' W 123°57'0 0.0
2014-Jul-23 14:33N 49°12' W 123°57'0 0.0
2014-Jul-23 13:33N 49°12' W 123°57'0 0.0
2014-Jul-23 12:33N 49°12' W 123°57'0 0.0
2014-Jul-23 11:27N 49°12' W 123°57'0 0.0
2014-Jul-23 10:33N 49°12' W 123°57'0 0.0
2014-Jul-23 09:33N 49°12' W 123°57'0 0.0
2014-Jul-23 08:27N 49°12' W 123°57'0 0.0
2014-Jul-23 07:33N 49°12' W 123°57'0 0.0
2014-Jul-23 06:33N 49°12' W 123°57'0 0.0
2014-Jul-23 05:27N 49°12' W 123°57'0 0.0
2014-Jul-23 04:33N 49°12' W 123°57'0 0.0
2014-Jul-23 03:33N 49°12' W 123°57'0 0.0
2014-Jul-23 02:33N 49°12' W 123°57'0 0.0
2014-Jul-23 01:33N 49°12' W 123°57'0 0.0
2014-Jul-23 00:33N 49°12' W 123°57'0 0.0
2014-Jul-22 23:27N 49°12' W 123°57'1112.4
2014-Jul-22 22:33N 49°16' W 123°42'1817.8
2014-Jul-22 21:33N 49°23' W 123°16'5 4.8
2014-Jul-22 20:33N 49°19' W 123°22'2020.2
2014-Jul-22 19:33N 49°14' W 123°51'4 4.2
2014-Jul-22 18:30N 49°12' W 123°57'0 0.0
2014-Jul-22 17:30N 49°12' W 123°57'0 0.0
2014-Jul-22 16:18N 49°12' W 123°57'0 0.0
2014-Jul-22 15:24N 49°12' W 123°57'0 0.0
2014-Jul-22 14:33N 49°12' W 123°57'0 0.0
2014-Jul-22 13:18N 49°12' W 123°57'0 0.0
2014-Jul-22 12:30N 49°12' W 123°57'0 0.0
2014-Jul-22 11:33N 49°12' W 123°57'0 0.0
2014-Jul-22 10:15N 49°12' W 123°57'0 0.0
2014-Jul-22 09:24N 49°12' W 123°57'0 0.0
2014-Jul-22 08:18N 49°12' W 123°57'0 0.0
2014-Jul-22 07:30N 49°12' W 123°57'0 0.0
2014-Jul-22 06:30N 49°12' W 123°57'0 0.0
2014-Jul-22 05:30N 49°12' W 123°57'0 0.0
2014-Jul-22 04:33N 49°12' W 123°57'2 2.1
2014-Jul-22 03:34N 49°13' W 123°55'2019.9
2014-Jul-22 02:33N 49°19' W 123°26'7 7.1
2014-Jul-22 01:33N 49°23' W 123°16'1716.5
2014-Jul-22 00:33N 49°16' W 123°39'1212.4
2014-Jul-21 23:33N 49°12' W 123°57'1212.2
2014-Jul-21 22:33N 49°17' W 123°40'1716.8
2014-Jul-21 21:33N 49°23' W 123°16'5 5.3
2014-Jul-21 20:33N 49°19' W 123°22'520.0
2014-Jul-21 20:18N 49°17' W 123°29'1520.1
2014-Jul-21 19:33N 49°14' W 123°52'3 2.9
2014-Jul-21 18:34N 49°13' W 123°56'2020.1
2014-Jul-21 17:34N 49°19' W 123°26'8 7.7
2014-Jul-21 16:33N 49°23' W 123°16'1514.7
2014-Jul-21 15:34N 49°16' W 123°36'1414.3
2014-Jul-21 14:33N 49°12' W 123°57'0 0.0
2014-Jul-21 13:32N 49°12' W 123°57'0 0.0
2014-Jul-21 12:29N 49°12' W 123°57'0 0.0
2014-Jul-21 11:29N 49°12' W 123°57'0 0.0
2014-Jul-21 10:29N 49°12' W 123°57'0 0.0
2014-Jul-21 08:29N 49°12' W 123°57'5 5.9
2014-Jul-21 07:33N 49°14' W 123°50'2020.1
2014-Jul-21 06:33N 49°20' W 123°21'1 1.0
2014-Jul-21 05:33N 49°20' W 123°22'2019.7
2014-Jul-21 04:33N 49°14' W 123°51'  

Dump ship's entire track history